Pagina principale
METAR-TAF:

METAR-TAF

Aeroporti :

Abu Simbel, Egitto

latitudine: 22-22-33N, longitudine: 31-36-42E, altezza: 188 m

Osservazione

Il bollettino è stato emesso 1 ora e 21 minuti fa, alle 05:00 UTC
Vento 3 kt da nord
Temperature 35°C
Umidità 20%
Pressione 1008 hPa
Visibilità 10 km o più
nessuna nube inferiore a 1500 m e nessun cumulonembo

METAR: HEBL 270500Z 01003KT CAVOK 35/09 Q1008 NOSIG

Ora: 08:21 (06:21 UTC)

Previsione

Il bollettino è stato emesso 1 ora e 21 minuti fa, alle 05:00 UTC
Previsione valida dal 27 alle 06 UTC al 28 alle 12 UTC
Vento 14 kt da nord
Visibilità 10 km o più
nessuna nube inferiore a 1500 m e nessun cumulonembo

TAF: HEBL 270500Z 2706/2812 35014KT CAVOK

Osservazioni e previsioni meteorologiche di più di 4000 aeroporti (messaggi METAR e TAF).

Le stazioni disponibili sono rappresentate dai dischi gialli e rossi sulla carta.

Puntare il mouse per vedere il nome della stazione.

Clicca sopra per visualizzare le osservazioni e previsioni meteorologiche.

Per cambiare la mappa : fare clic sui pulsanti verdi con una croce nera per ingrandire, il pulsante verde con un trattino per diminuire, o sulla freccia verde per le mappe adiacenti.


METAR-TAF: